Time;durP1;ratioP1;P1;durP2;ratioP2;P2;SDS_P1;SDS_P2;PMS_P1;PMS_P2;Temp;Humidity;BMP_temperature;BMP_pressure;BME280_temperature;BME280_humidity;BME280_pressure;Samples;Min_cycle;Max_cycle;Signal;HPM_P1;HPM_P2
2023/01/26 00:01:09;;;;;;;84.90;40.72;;;;;;;4.32;56.88;102460.97;6182702;23;20051;-65
2023/01/26 00:03:35;;;;;;;89.50;42.63;;;;;;;4.25;56.79;102454.91;6182101;22;20052;-65
2023/01/26 00:06:07;;;;;;;91.93;42.85;;;;;;;4.25;56.95;102457.56;6182067;23;20044;-66
2023/01/26 00:08:39;;;;;;;89.22;41.15;;;;;;;4.23;56.93;102458.50;6182770;23;20455;-66
2023/01/26 00:11:07;;;;;;;88.93;43.13;;;;;;;4.24;56.99;102447.81;6181922;23;20021;-66
2023/01/26 00:13:34;;;;;;;93.15;44.88;;;;;;;4.26;56.81;102445.13;6181766;23;20047;-67
2023/01/26 00:16:02;;;;;;;93.38;43.70;;;;;;;4.27;56.89;102442.44;6182218;23;20096;-66
2023/01/26 00:18:30;;;;;;;89.95;41.78;;;;;;;4.26;56.79;102440.69;6181977;23;20017;-65
2023/01/26 00:20:58;;;;;;;90.53;43.40;;;;;;;4.21;57.09;102431.06;6181800;23;20067;-65
2023/01/26 00:23:26;;;;;;;89.15;42.72;;;;;;;4.19;57.04;102423.13;6181701;23;20021;-65
2023/01/26 00:25:53;;;;;;;81.88;41.28;;;;;;;4.18;57.05;102425.81;6182216;23;20092;-66
2023/01/26 00:28:20;;;;;;;88.00;40.40;;;;;;;4.21;57.18;102428.41;6182306;23;20021;-66
2023/01/26 00:30:46;;;;;;;87.05;39.38;;;;;;;4.24;57.21;102433.66;6182004;23;20017;-65
2023/01/26 00:33:13;;;;;;;85.88;42.30;;;;;;;4.20;57.09;102430.19;6181780;23;20013;-66
2023/01/26 00:35:43;;;;;;;81.20;38.72;;;;;;;4.19;57.13;102423.13;6181826;23;20009;-66
2023/01/26 00:38:14;;;;;;;76.88;38.67;;;;;;;4.18;57.24;102418.69;6182058;23;20037;-66
2023/01/26 00:40:41;;;;;;;79.97;40.00;;;;;;;4.23;57.21;102414.16;6131272;22;20059;-65
2023/01/26 00:43:08;;;;;;;78.75;39.13;;;;;;;4.26;57.32;102414.09;6182168;22;20095;-66
2023/01/26 00:45:34;;;;;;;82.60;40.33;;;;;;;4.31;57.30;102411.34;6155614;23;20340;-66
2023/01/26 00:48:04;;;;;;;82.43;40.10;;;;;;;4.32;57.10;102411.31;6155534;23;20021;-65
2023/01/26 00:50:32;;;;;;;81.38;39.67;;;;;;;4.32;57.24;102408.66;6182101;22;20378;-65
2023/01/26 00:52:59;;;;;;;75.47;38.30;;;;;;;4.29;57.27;102406.06;6155692;23;20042;-65
2023/01/26 00:55:31;;;;;;;79.10;37.08;;;;;;;4.24;57.14;102399.97;6155797;23;20392;-66
2023/01/26 00:58:03;;;;;;;84.22;39.60;;;;;;;4.21;57.24;102393.84;6181848;23;20017;-65
2023/01/26 01:00:31;;;;;;;79.78;38.40;;;;;;;4.17;57.18;102389.47;6181721;23;20024;-65
2023/01/26 01:02:58;;;;;;;77.00;37.15;;;;;;;4.12;57.23;102387.78;6181840;22;20024;-66
2023/01/26 01:05:27;;;;;;;77.60;37.05;;;;;;;4.09;57.39;102389.63;6155895;22;20017;-66
2023/01/26 01:07:54;;;;;;;76.50;37.75;;;;;;;4.08;57.31;102390.53;6181712;23;20020;-66
2023/01/26 01:10:21;;;;;;;73.40;36.83;;;;;;;4.04;57.24;102392.38;6155323;23;20017;-66
2023/01/26 01:12:48;;;;;;;74.80;36.90;;;;;;;4.03;57.32;102389.75;6130993;23;20103;-67
2023/01/26 01:15:15;;;;;;;78.43;36.67;;;;;;;3.98;57.42;102381.00;6155519;23;20108;-66
2023/01/26 01:17:41;;;;;;;71.88;35.97;;;;;;;3.93;57.29;102386.41;6182099;23;20100;-65
2023/01/26 01:20:09;;;;;;;71.25;35.30;;;;;;;3.87;57.22;102377.66;6181602;23;20431;-66
2023/01/26 01:22:37;;;;;;;78.43;36.38;;;;;;;3.82;57.37;102372.44;6155308;23;20016;-66
2023/01/26 01:25:04;;;;;;;77.88;36.75;;;;;;;3.82;57.49;102383.06;6181681;23;20120;-65
2023/01/26 01:27:31;;;;;;;75.03;37.50;;;;;;;3.82;57.50;102373.31;6155455;22;20026;-66
2023/01/26 01:29:57;;;;;;;77.50;37.17;;;;;;;3.82;57.58;102370.66;6181501;23;20092;-66
2023/01/26 01:32:24;;;;;;;77.47;36.67;;;;;;;3.88;57.79;102366.13;6181879;23;20041;-65
2023/01/26 01:34:50;;;;;;;74.93;36.35;;;;;;;3.94;57.74;102368.66;6181643;23;20476;-66
2023/01/26 01:37:17;;;;;;;74.03;37.15;;;;;;;4.01;57.83;102372.97;6181799;23;20013;-66
2023/01/26 01:39:44;;;;;;;77.82;36.97;;;;;;;4.07;57.92;102372.84;6181437;23;20111;-65
2023/01/26 01:42:11;;;;;;;79.82;37.35;;;;;;;4.05;57.72;102377.31;6154939;23;20024;-66
2023/01/26 01:44:38;;;;;;;78.75;37.78;;;;;;;4.03;57.54;102373.81;6181531;23;20023;-66
2023/01/26 01:47:13;;;;;;;75.43;38.45;;;;;;;4.04;57.71;102378.22;6181562;23;20432;-65
2023/01/26 01:49:49;;;;;;;75.13;36.70;;;;;;;4.07;57.93;102378.16;6181875;23;20020;-66
2023/01/26 01:52:18;;;;;;;75.22;36.90;;;;;;;4.11;57.76;102379.84;6155024;23;20082;-66
2023/01/26 01:54:54;;;;;;;74.93;37.33;;;;;;;4.14;57.63;102375.34;6155125;22;20452;-65
2023/01/26 01:57:27;;;;;;;78.70;37.40;;;;;;;4.15;57.81;102385.06;6181796;23;20040;-65
2023/01/26 02:00:04;;;;;;;75.05;36.47;;;;;;;4.19;57.86;102380.56;6181605;23;20024;-65
2023/01/26 02:02:39;;;;;;;70.10;36.47;;;;;;;4.23;57.87;102368.97;6156628;23;20456;-66
2023/01/26 02:05:12;;;;;;;76.53;37.05;;;;;;;4.28;57.86;102368.88;6181675;23;20100;-65
2023/01/26 02:07:39;;;;;;;74.68;36.75;;;;;;;4.31;57.80;102374.13;6182204;23;20037;-66
2023/01/26 02:10:19;;;;;;;72.35;35.60;;;;;;;4.30;57.78;102370.59;6182562;23;20021;-66
2023/01/26 02:12:50;;;;;;;74.70;37.97;;;;;;;4.29;57.83;102362.63;6156127;23;20024;-66
2023/01/26 02:15:17;;;;;;;68.53;36.20;;;;;;;4.27;57.81;102365.31;6182600;23;20017;-65
2023/01/26 02:17:44;;;;;;;71.80;36.55;;;;;;;4.27;57.86;102367.13;6156175;23;20074;-66
2023/01/26 02:20:27;;;;;;;73.15;37.05;;;;;;;4.26;57.90;102360.91;6156028;23;20496;-65
2023/01/26 02:23:03;;;;;;;76.05;38.00;;;;;;;4.30;57.82;102357.28;6156148;23;20440;-66
2023/01/26 02:25:43;;;;;;;71.93;37.05;;;;;;;4.31;57.98;102351.06;6156071;23;20059;-66
2023/01/26 02:28:10;;;;;;;75.93;38.58;;;;;;;4.32;57.94;102358.13;6156080;23;20021;-65
2023/01/26 02:30:37;;;;;;;80.88;39.85;;;;;;;4.30;57.80;102362.59;6155874;22;20021;-66
2023/01/26 02:33:04;;;;;;;76.32;38.58;;;;;;;4.31;57.92;102360.81;6182134;23;20017;-65
2023/01/26 02:35:32;;;;;;;75.38;37.03;;;;;;;4.28;57.97;102356.44;6156121;23;20021;-65
2023/01/26 02:38:00;;;;;;;76.97;37.47;;;;;;;4.28;58.04;102353.78;6156180;23;20017;-66
2023/01/26 02:40:41;;;;;;;76.75;38.30;;;;;;;4.28;57.98;102347.59;6155903;22;20021;-65
2023/01/26 02:43:09;;;;;;;74.22;36.42;;;;;;;4.29;58.05;102347.56;6156201;23;20100;-66
2023/01/26 02:45:39;;;;;;;69.68;36.75;;;;;;;4.34;58.05;102353.66;6156140;23;20343;-66
2023/01/26 02:48:07;;;;;;;70.72;35.78;;;;;;;4.38;58.04;102347.38;6156016;23;20017;-65
2023/01/26 02:50:34;;;;;;;70.60;36.70;;;;;;;4.42;58.05;102351.72;6131511;23;20100;-65
2023/01/26 02:53:02;;;;;;;63.88;34.53;;;;;;;4.45;57.94;102340.13;6155842;23;20017;-66
2023/01/26 02:55:29;;;;;;;66.13;34.40;;;;;;;4.48;57.95;102337.44;6156122;23;20074;-66
2023/01/26 02:57:59;;;;;;;69.05;34.38;;;;;;;4.47;58.03;102335.69;6182547;22;20467;-66
2023/01/26 03:00:40;;;;;;;70.55;35.85;;;;;;;4.46;57.98;102334.81;6155946;22;20024;-66
2023/01/26 03:03:15;;;;;;;64.88;33.47;;;;;;;4.47;57.84;102338.34;6156028;23;20112;-67
2023/01/26 03:05:42;;;;;;;65.10;33.90;;;;;;;4.50;58.04;102340.94;6155991;23;20114;-67
2023/01/26 03:08:09;;;;;;;63.75;32.63;;;;;;;4.54;58.18;102339.09;6156203;22;20109;-66
2023/01/26 03:10:37;;;;;;;65.40;34.05;;;;;;;4.57;58.03;102341.66;6156460;23;20075;-66
2023/01/26 03:13:05;;;;;;;66.95;34.53;;;;;;;4.61;58.06;102335.38;6131600;23;20070;-67
2023/01/26 03:15:51;;;;;;;65.82;34.83;;;;;;;4.62;58.06;102335.34;6155950;23;20021;-66
2023/01/26 03:29:31;;;;;;;62.33;32.10;;;;;;;4.69;58.01;102328.97;6155716;23;20017;-66
2023/01/26 03:31:59;;;;;;;62.30;33.17;;;;;;;4.72;57.97;102328.03;6155633;22;20050;-66
2023/01/26 03:34:26;;;;;;;68.03;34.17;;;;;;;4.73;58.02;102332.44;6156197;23;20028;-67
2023/01/26 03:36:53;;;;;;;61.80;32.85;;;;;;;4.74;58.13;102332.41;6155772;23;20070;-67
2023/01/26 03:56:20;;;;;;;57.38;30.58;;;;;;;4.68;57.77;102329.88;6155916;23;20021;-66
2023/01/26 03:58:57;;;;;;;60.67;31.63;;;;;;;4.65;57.72;102337.06;6156427;22;20021;-66
2023/01/26 04:01:27;;;;;;;54.33;30.38;;;;;;;4.66;57.79;102328.16;6155717;23;20043;-67
2023/01/26 04:09:32;;;;;;;57.58;30.13;;;;;;;4.72;57.79;102323.56;6156024;23;20451;-65
2023/01/26 04:11:59;;;;;;;58.83;30.75;;;;;;;4.75;57.85;102325.28;6155591;23;20032;-67
2023/01/26 04:22:51;;;;;;;59.28;30.55;;;;;;;4.83;58.01;102322.44;6155326;23;20448;-66
2023/01/26 04:25:20;;;;;;;62.97;31.58;;;;;;;4.81;58.13;102325.13;6155429;23;20013;-66
2023/01/26 04:27:47;;;;;;;55.95;29.52;;;;;;;4.79;58.08;102325.19;6181750;23;20025;-66
2023/01/26 04:30:15;;;;;;;55.70;30.52;;;;;;;4.80;58.09;102331.38;6155268;23;20043;-67
2023/01/26 04:32:43;;;;;;;55.42;29.75;;;;;;;4.81;58.12;102326.94;6131303;23;20070;-66
2023/01/26 04:35:10;;;;;;;55.50;30.20;;;;;;;4.82;58.00;102328.69;6181962;23;20370;-67
2023/01/26 04:37:37;;;;;;;57.35;28.23;;;;;;;4.82;58.08;102323.34;6155499;23;20021;-66
2023/01/26 04:40:05;;;;;;;52.67;27.85;;;;;;;4.82;58.26;102334.88;6155262;23;20498;-66
2023/01/26 04:42:34;;;;;;;54.60;29.85;;;;;;;4.83;58.12;102328.63;6155342;23;20352;-66
2023/01/26 04:45:02;;;;;;;57.05;29.58;;;;;;;4.85;58.13;102325.94;6155522;23;20024;-67
2023/01/26 04:47:30;;;;;;;55.35;28.33;;;;;;;4.85;58.12;102321.50;6131125;23;20543;-66
2023/01/26 04:49:56;;;;;;;56.30;29.33;;;;;;;4.85;58.09;102329.47;6155331;23;20053;-66
2023/01/26 04:52:23;;;;;;;51.15;28.27;;;;;;;4.83;58.14;102325.09;6155253;23;20028;-67
2023/01/26 04:54:50;;;;;;;52.53;27.83;;;;;;;4.82;58.17;102332.22;6155694;23;20025;-65
2023/01/26 04:57:19;;;;;;;56.42;29.52;;;;;;;4.82;58.23;102328.69;6181855;23;20017;-66
2023/01/26 04:59:48;;;;;;;53.88;28.10;;;;;;;4.81;58.28;102322.47;6155587;23;20104;-67
2023/01/26 05:02:17;;;;;;;52.10;26.85;;;;;;;4.84;58.22;102322.41;6155281;23;20520;-67
2023/01/26 05:04:43;;;;;;;53.90;26.38;;;;;;;4.86;58.30;102312.59;6181653;23;20013;-67
2023/01/26 05:07:11;;;;;;;49.20;25.75;;;;;;;4.85;58.17;102318.84;6181699;23;20447;-67
2023/01/26 05:09:37;;;;;;;51.30;25.73;;;;;;;4.85;58.22;102315.28;6155447;23;20347;-67
2023/01/26 05:12:33;;;;;;;48.97;25.70;;;;;;;4.84;58.26;102316.22;6101851;23;20103;-67
2023/01/26 05:15:18;;;;;;;47.17;25.30;;;;;;;4.84;58.29;102311.75;6181708;23;20106;-67
2023/01/26 05:18:06;;;;;;;49.55;25.02;;;;;;;4.82;58.19;102305.59;6181165;23;20094;-66
2023/01/26 05:20:37;;;;;;;44.58;24.40;;;;;;;4.81;58.64;102314.50;6155540;22;20017;-67
2023/01/26 05:23:13;;;;;;;42.78;22.88;;;;;;;4.83;58.45;102310.00;6155238;22;20040;-66
2023/01/26 05:25:58;;;;;;;42.30;21.83;;;;;;;4.86;58.34;102314.38;6182140;23;20025;-66
2023/01/26 05:28:26;;;;;;;44.28;24.00;;;;;;;4.86;58.54;102304.63;6130815;23;20452;-67
2023/01/26 05:30:53;;;;;;;46.22;23.23;;;;;;;4.87;58.56;102317.00;6131611;23;20099;-66
2023/01/26 05:33:21;;;;;;;43.38;22.67;;;;;;;4.87;58.51;102310.81;6155326;22;20013;-65
2023/01/26 05:35:48;;;;;;;41.47;22.70;;;;;;;4.86;58.23;102317.03;6155276;22;20518;-67
2023/01/26 05:38:15;;;;;;;36.33;21.10;;;;;;;4.87;58.58;102313.47;6155142;23;20017;-67
2023/01/26 05:40:42;;;;;;;41.53;21.10;;;;;;;4.89;58.49;102316.97;6245748;22;20028;-67
2023/01/26 05:43:09;;;;;;;39.40;21.73;;;;;;;4.91;58.59;102313.34;6284595;22;20402;-67
2023/01/26 05:45:43;;;;;;;39.88;21.83;;;;;;;4.94;58.43;102313.28;6285152;22;20020;-67
2023/01/26 05:48:11;;;;;;;36.10;20.95;;;;;;;4.96;58.51;102318.56;6181809;23;20091;-68
2023/01/26 05:50:38;;;;;;;35.95;19.23;;;;;;;4.95;58.62;102315.03;6284999;22;20021;-67
2023/01/26 05:53:12;;;;;;;36.05;19.77;;;;;;;4.94;58.59;102321.28;6181651;23;20028;-67
2023/01/26 05:55:38;;;;;;;34.88;19.63;;;;;;;4.96;58.54;102321.22;6284952;22;20088;-67
2023/01/26 05:58:05;;;;;;;36.72;19.55;;;;;;;4.97;58.63;102322.97;6285094;22;20023;-67
2023/01/26 06:00:32;;;;;;;36.83;19.95;;;;;;;4.97;58.61;102318.53;6284889;22;20095;-67
2023/01/26 06:03:06;;;;;;;36.53;19.80;;;;;;;5.01;58.73;102316.66;6292163;22;20025;-67
2023/01/26 06:05:32;;;;;;;36.17;19.25;;;;;;;5.02;58.67;102321.09;6285218;22;20017;-67
2023/01/26 06:08:04;;;;;;;33.20;19.05;;;;;;;5.03;58.78;102313.06;6285559;22;20090;-68
2023/01/26 06:10:45;;;;;;;33.35;18.95;;;;;;;5.04;58.63;102314.81;6181164;23;20313;-67
2023/01/26 06:13:24;;;;;;;34.90;18.50;;;;;;;5.05;58.66;102323.66;6284673;22;20108;-67
2023/01/26 06:16:00;;;;;;;34.20;18.77;;;;;;;5.07;58.78;102324.50;6284865;22;20104;-67
2023/01/26 06:18:29;;;;;;;34.55;19.42;;;;;;;5.07;58.70;102322.72;6285037;22;20052;-66
2023/01/26 06:21:00;;;;;;;31.63;17.23;;;;;;;5.07;58.63;102319.19;6285139;22;20025;-67
2023/01/26 06:23:28;;;;;;;36.05;19.27;;;;;;;5.08;58.79;102327.13;6284556;22;20474;-66
2023/01/26 06:26:00;;;;;;;33.83;19.00;;;;;;;5.07;58.62;102324.50;6181054;23;20091;-67
2023/01/26 06:28:29;;;;;;;34.80;18.63;;;;;;;5.07;58.66;102325.38;6284886;22;20071;-67
2023/01/26 06:31:03;;;;;;;34.38;18.02;;;;;;;5.07;58.71;102329.84;6284938;22;20422;-67
2023/01/26 06:33:33;;;;;;;32.05;17.45;;;;;;;5.06;58.82;102317.44;6284903;22;20032;-67
2023/01/26 06:36:01;;;;;;;29.80;16.95;;;;;;;5.06;58.75;102326.28;6284919;22;20021;-67
2023/01/26 06:38:29;;;;;;;30.42;17.27;;;;;;;5.07;58.68;102321.84;6284687;22;20024;-67
2023/01/26 06:41:04;;;;;;;32.45;17.80;;;;;;;5.08;58.82;102320.94;6154551;23;20018;-66
2023/01/26 06:43:33;;;;;;;32.00;17.70;;;;;;;5.07;58.71;102329.84;6154415;23;20325;-67
2023/01/26 06:46:01;;;;;;;32.40;17.92;;;;;;;5.07;58.84;102340.47;6180909;23;20463;-67
2023/01/26 06:48:31;;;;;;;30.20;18.38;;;;;;;5.06;58.82;102334.28;6129830;23;20478;-67
2023/01/26 06:51:25;;;;;;;32.85;18.00;;;;;;;5.06;58.77;102336.94;6154901;23;20021;-68
2023/01/26 06:53:52;;;;;;;30.27;17.60;;;;;;;5.05;58.79;102332.53;6131839;23;20025;-67
2023/01/26 06:56:30;;;;;;;32.20;17.67;;;;;;;5.03;58.72;102345.00;6155554;22;20036;-67
2023/01/26 06:59:17;;;;;;;33.78;17.95;;;;;;;5.04;58.87;102337.91;6181485;23;20390;-67
2023/01/26 07:02:20;;;;;;;28.20;16.38;;;;;;;5.05;58.86;102339.66;6102694;23;20559;-67
2023/01/26 07:04:48;;;;;;;31.73;17.40;;;;;;;5.06;58.87;102342.28;6182653;23;20375;-66
2023/01/26 07:07:14;;;;;;;30.65;17.63;;;;;;;5.06;58.89;102344.94;6182103;23;20017;-67
2023/01/26 07:09:41;;;;;;;31.90;17.20;;;;;;;5.06;58.93;102339.59;6182316;23;20024;-67
2023/01/26 07:12:08;;;;;;;33.38;17.85;;;;;;;5.07;58.86;102343.16;6182210;23;20025;-67
2023/01/26 07:14:35;;;;;;;32.40;18.80;;;;;;;5.07;59.07;102335.16;6156213;23;20386;-67
2023/01/26 07:17:01;;;;;;;34.08;18.02;;;;;;;5.08;58.94;102332.47;6182489;23;20362;-67
2023/01/26 07:19:30;;;;;;;36.08;18.48;;;;;;;5.08;58.92;102336.91;6156186;23;20020;-67
2023/01/26 07:21:56;;;;;;;31.60;17.98;;;;;;;5.08;58.82;102356.44;6181923;23;20062;-67
2023/01/26 07:24:23;;;;;;;32.08;18.77;;;;;;;5.07;58.96;102351.13;6182181;23;20459;-67
2023/01/26 07:26:51;;;;;;;33.85;19.48;;;;;;;5.07;59.02;102341.34;6182232;23;20017;-67
2023/01/26 07:29:17;;;;;;;40.33;27.17;;;;;;;5.07;58.98;102349.34;6182405;23;20092;-69
2023/01/26 07:31:44;;;;;;;38.35;19.60;;;;;;;5.10;59.05;102361.72;6182029;23;20021;-68
2023/01/26 07:34:11;;;;;;;39.65;21.17;;;;;;;5.12;59.15;102359.88;6181889;22;20096;-68
2023/01/26 07:37:21;;;;;;;37.13;19.25;;;;;;;5.14;59.09;102359.84;6182735;23;20083;-69
2023/01/26 07:39:29;;;;;;;36.20;19.58;;;;;;;5.17;59.09;102358.00;6164088;23;20024;-73
2023/01/26 07:41:55;;;;;;;37.92;19.65;;;;;;;5.18;59.09;102357.06;6182152;23;20378;-72
2023/01/26 07:44:31;;;;;;;39.30;21.15;;;;;;;5.19;59.07;102352.63;6156207;23;20013;-72
2023/01/26 07:46:58;;;;;;;41.67;21.42;;;;;;;5.15;59.09;102365.13;6182068;23;20515;-71
2023/01/26 07:49:24;;;;;;;41.13;22.13;;;;;;;5.14;59.05;102374.03;6182034;23;20013;-72
2023/01/26 07:51:52;;;;;;;39.35;21.15;;;;;;;5.15;59.13;102367.81;6181425;23;20440;-72
2023/01/26 07:54:20;;;;;;;42.40;21.85;;;;;;;5.17;59.18;102357.13;6181141;23;20040;-71
2023/01/26 07:56:51;;;;;;;40.75;21.80;;;;;;;5.19;59.22;102358.81;6181206;23;20406;-72
2023/01/26 07:59:18;;;;;;;43.67;22.08;;;;;;;5.21;59.15;102362.34;6181200;23;20109;-73
2023/01/26 08:01:45;;;;;;;49.30;23.75;;;;;;;5.23;59.19;102363.19;6181617;23;20366;-71
2023/01/26 08:04:11;;;;;;;48.58;23.52;;;;;;;5.24;59.38;102367.59;6180738;23;20126;-72
2023/01/26 08:06:38;;;;;;;44.38;24.23;;;;;;;5.24;59.24;102369.41;6181773;23;20450;-72
2023/01/26 08:09:05;;;;;;;40.83;21.30;;;;;;;5.24;59.22;102366.72;6182179;23;20039;-71
2023/01/26 08:11:31;;;;;;;45.80;23.05;;;;;;;5.24;59.22;102361.41;6181954;22;20450;-72
2023/01/26 08:13:58;;;;;;;41.17;22.38;;;;;;;5.27;59.20;102364.88;6181767;23;20025;-72
2023/01/26 08:16:24;;;;;;;45.50;21.33;;;;;;;5.29;59.24;102367.50;6182342;23;20021;-72
2023/01/26 08:18:51;;;;;;;46.35;23.08;;;;;;;5.32;59.32;102370.09;6182353;23;20017;-72
2023/01/26 08:21:19;;;;;;;44.25;21.77;;;;;;;5.34;59.38;102373.59;6182274;23;20326;-72
2023/01/26 08:23:49;;;;;;;49.30;23.90;;;;;;;5.36;59.33;102372.63;6181803;23;20329;-72
2023/01/26 08:26:18;;;;;;;39.90;21.35;;;;;;;5.36;59.39;102377.09;6181899;23;20020;-72
2023/01/26 08:28:45;;;;;;;44.50;22.52;;;;;;;5.36;59.25;102379.75;6181935;23;20436;-72
2023/01/26 08:31:18;;;;;;;45.15;22.75;;;;;;;5.37;59.21;102384.16;6182020;23;20021;-72
2023/01/26 08:33:51;;;;;;;44.70;22.42;;;;;;;5.38;59.28;102380.59;6181827;23;20447;-73
2023/01/26 08:36:18;;;;;;;46.72;21.80;;;;;;;5.37;59.37;102378.84;6182110;23;20108;-72
2023/01/26 08:38:48;;;;;;;39.58;19.85;;;;;;;5.37;59.33;102376.16;6182023;23;20473;-73
2023/01/26 08:41:14;;;;;;;44.40;20.55;;;;;;;5.38;59.32;102380.59;6181857;23;20025;-72
2023/01/26 08:43:41;;;;;;;40.70;20.52;;;;;;;5.39;59.42;102382.34;6181627;23;20049;-73
2023/01/26 08:46:08;;;;;;;43.97;21.52;;;;;;;5.41;59.42;102388.50;6181849;23;20017;-72
2023/01/26 08:48:36;;;;;;;44.08;21.48;;;;;;;5.41;59.36;102389.38;6182165;23;20018;-72
2023/01/26 08:51:04;;;;;;;43.22;21.65;;;;;;;5.42;59.43;102385.78;6182206;23;20048;-72
2023/01/26 08:53:32;;;;;;;41.85;20.33;;;;;;;5.42;59.33;102390.25;6181603;23;20348;-72
2023/01/26 08:56:03;;;;;;;45.95;20.80;;;;;;;5.43;59.35;102386.66;6181898;23;20462;-72
2023/01/26 08:58:31;;;;;;;37.60;19.63;;;;;;;5.43;59.30;102392.00;6155514;23;20103;-72
2023/01/26 09:00:58;;;;;;;46.10;21.10;;;;;;;5.43;59.51;102392.00;6181758;23;20067;-72
2023/01/26 09:03:25;;;;;;;41.10;20.15;;;;;;;5.44;59.42;102396.41;6181479;23;20062;-72
2023/01/26 09:05:51;;;;;;;43.50;21.52;;;;;;;5.42;59.60;102395.56;6181846;23;20040;-72
2023/01/26 09:08:18;;;;;;;41.20;19.98;;;;;;;5.40;59.48;102392.94;6181650;23;20104;-72
2023/01/26 09:10:45;;;;;;;40.45;21.15;;;;;;;5.40;59.53;102398.28;6181816;23;20009;-71
2023/01/26 09:13:11;;;;;;;48.20;21.58;;;;;;;5.41;59.81;102389.38;6180595;22;20455;-72
2023/01/26 09:15:38;;;;;;;37.88;19.27;;;;;;;5.44;59.73;102388.41;6181776;23;20413;-71
2023/01/26 09:18:04;;;;;;;40.33;20.35;;;;;;;5.46;59.67;102397.25;6181526;23;20080;-72
2023/01/26 09:20:31;;;;;;;42.15;20.00;;;;;;;5.49;59.69;102394.50;6181500;23;20033;-72
2023/01/26 09:22:58;;;;;;;42.03;20.90;;;;;;;5.54;59.71;102394.41;6155284;23;20055;-71
2023/01/26 09:25:24;;;;;;;46.65;21.77;;;;;;;5.58;59.71;102394.28;6181598;23;20013;-72
2023/01/26 09:27:51;;;;;;;43.08;22.05;;;;;;;5.62;59.72;102395.94;6180140;22;20496;-72
2023/01/26 09:30:17;;;;;;;46.90;22.13;;;;;;;5.65;59.76;102397.66;6181194;23;20486;-72
2023/01/26 09:32:44;;;;;;;54.70;22.55;;;;;;;5.68;59.81;102398.44;6181236;23;20024;-72
2023/01/26 09:35:11;;;;;;;50.92;23.10;;;;;;;5.72;59.86;102399.25;6181460;23;20046;-72
2023/01/26 09:37:42;;;;;;;51.67;22.30;;;;;;;5.77;59.75;102399.13;6155091;23;20047;-71
2023/01/26 09:40:18;;;;;;;53.97;24.15;;;;;;;5.79;59.81;102394.63;6154353;22;20017;-71
2023/01/26 09:43:04;;;;;;;50.38;23.73;;;;;;;5.81;59.82;102398.13;6181342;23;20017;-71
2023/01/26 09:45:54;;;;;;;;;;;;;;;5.86;59.71;102412.22;6155444;23;20092;-72
2023/01/26 09:48:50;;;;;;;45.83;20.33;;;;;;;5.90;59.64;102404.13;6166013;23;19969;-72
2023/01/26 09:51:28;;;;;;;62.47;25.95;;;;;;;5.88;59.59;102403.25;6136339;23;20462;-72
2023/01/26 09:54:00;;;;;;;57.63;23.75;;;;;;;5.88;59.64;102397.06;6152823;23;20021;-72
2023/01/26 09:56:31;;;;;;;51.28;24.83;;;;;;;5.87;59.67;102401.50;6181220;23;20024;-72
2023/01/26 09:59:38;;;;;;;55.60;23.17;;;;;;;5.83;59.79;102407.84;6181167;23;20021;-71
2023/01/26 10:02:45;;;;;;;57.60;23.98;;;;;;;5.84;59.65;102390.91;6181070;23;20015;-72
2023/01/26 10:05:27;;;;;;;52.80;22.02;;;;;;;5.86;59.69;102394.44;6181269;23;20448;-71
2023/01/26 10:08:11;;;;;;;58.67;25.05;;;;;;;5.91;59.72;102403.22;6181143;23;20024;-72
2023/01/26 10:10:46;;;;;;;64.60;25.92;;;;;;;5.94;59.71;102394.25;6154744;23;20040;-71
2023/01/26 10:13:15;;;;;;;71.53;27.50;;;;;;;5.96;59.77;102396.00;6154408;23;20017;-71
2023/01/26 10:15:46;;;;;;;59.58;25.65;;;;;;;5.99;59.73;102393.25;6181350;23;20013;-71
2023/01/26 10:18:24;;;;;;;60.92;24.30;;;;;;;6.00;59.80;102394.13;6180972;23;20033;-71
2023/01/26 10:20:57;;;;;;;61.70;25.85;;;;;;;6.01;59.67;102390.53;6181172;23;20040;-70
2023/01/26 10:23:34;;;;;;;51.17;23.83;;;;;;;6.02;59.77;102386.94;6153275;23;20112;-71
2023/01/26 10:26:10;;;;;;;55.72;23.75;;;;;;;6.04;59.71;102380.66;6154579;23;20424;-71
2023/01/26 10:28:37;;;;;;;65.07;25.77;;;;;;;6.07;59.69;102385.03;6181331;23;20023;-71
2023/01/26 10:31:11;;;;;;;62.30;26.83;;;;;;;6.07;59.92;102381.47;6182366;23;20017;-71
2023/01/26 10:33:47;;;;;;;53.28;24.40;;;;;;;6.07;59.80;102382.34;6181783;22;20447;-70
2023/01/26 10:36:14;;;;;;;74.70;28.38;;;;;;;6.09;59.74;102385.84;6182676;23;20066;-72
2023/01/26 10:38:42;;;;;;;68.70;27.23;;;;;;;6.10;59.86;102386.72;6182055;23;20018;-71
2023/01/26 10:41:18;;;;;;;72.00;27.98;;;;;;;6.10;59.88;102392.06;6155542;23;20021;-72
2023/01/26 10:43:54;;;;;;;63.75;27.00;;;;;;;6.07;59.90;102395.69;6131177;23;20020;-72
2023/01/26 10:46:27;;;;;;;81.22;31.02;;;;;;;6.10;59.88;102400.06;6156114;23;20497;-71
2023/01/26 10:49:13;;;;;;;77.97;30.80;;;;;;;6.09;59.97;102393.84;6182125;23;20010;-73
2023/01/26 10:51:46;;;;;;;100.07;34.85;;;;;;;6.08;60.01;102394.78;6182015;23;20017;-71
2023/01/26 10:54:18;;;;;;;83.97;32.72;;;;;;;6.08;60.14;102392.09;6181503;23;20028;-72
2023/01/26 10:56:56;;;;;;;76.20;30.33;;;;;;;6.05;60.10;102393.06;6182063;23;20029;-71
2023/01/26 10:59:42;;;;;;;89.03;32.85;;;;;;;6.07;60.24;102390.34;6155488;23;20013;-72
2023/01/26 11:02:15;;;;;;;90.80;32.17;;;;;;;6.07;60.28;102400.16;6181836;22;20473;-72
2023/01/26 11:05:07;;;;;;;143.20;41.03;;;;;;;6.04;60.35;102396.66;6131135;23;20017;-71
2023/01/26 11:07:43;;;;;;;115.10;35.70;;;;;;;6.07;60.40;102394.81;6182231;23;20017;-72
2023/01/26 11:10:19;;;;;;;83.55;33.35;;;;;;;6.08;60.47;102392.09;6182410;23;20020;-72
2023/01/26 11:12:45;;;;;;;129.98;39.20;;;;;;;6.11;60.53;102392.03;6181892;23;20021;-71
2023/01/26 11:15:22;;;;;;;114.82;36.28;;;;;;;6.14;60.61;102386.59;6181951;22;20021;-71
2023/01/26 11:17:59;;;;;;;162.85;42.00;;;;;;;6.18;60.83;102385.59;6182686;23;20499;-72
2023/01/26 11:20:38;;;;;;;107.63;35.75;;;;;;;6.23;60.79;102383.69;6182486;23;20013;-72
2023/01/26 11:23:12;;;;;;;125.35;38.88;;;;;;;6.29;61.03;102379.97;6181837;23;20009;-72
2023/01/26 11:26:08;;;;;;;105.28;33.15;;;;;;;6.32;61.10;102386.06;6181819;23;20100;-71
2023/01/26 11:28:51;;;;;;;106.15;31.55;;;;;;;6.36;61.23;102382.41;6150750;23;20383;-71
2023/01/26 11:31:31;;;;;;;172.70;39.08;;;;;;;6.41;61.32;102387.59;6181941;23;20463;-72
2023/01/26 11:34:15;;;;;;;168.80;36.50;;;;;;;6.46;61.54;102384.81;6181959;22;20367;-71
2023/01/26 11:36:44;;;;;;;112.35;35.10;;;;;;;6.52;61.40;102381.94;6182077;23;20462;-72
2023/01/26 11:39:21;;;;;;;95.32;32.33;;;;;;;6.58;61.59;102384.44;6181374;23;20013;-72
2023/01/26 11:41:57;;;;;;;120.72;35.95;;;;;;;6.63;61.67;102382.50;6181771;22;20059;-72
2023/01/26 11:44:57;;;;;;;121.93;33.58;;;;;;;6.67;61.73;102378.81;6182217;22;20027;-71
2023/01/26 11:48:04;;;;;;;94.80;31.92;;;;;;;6.76;61.79;102381.25;6155648;23;20493;-71
2023/01/26 11:50:47;;;;;;;89.63;29.40;;;;;;;6.83;61.92;102382.78;6132396;23;20017;-71
2023/01/26 11:53:35;;;;;;;98.40;29.05;;;;;;;6.91;61.95;102380.75;6155393;23;20048;-72
2023/01/26 11:56:08;;;;;;;99.65;30.88;;;;;;;6.98;62.03;102370.75;6131246;23;20150;-71
2023/01/26 11:58:45;;;;;;;96.63;29.98;;;;;;;7.02;62.28;102372.41;6182109;23;20444;-73
2023/01/26 12:01:40;;;;;;;94.32;28.40;;;;;;;7.09;62.39;102373.09;6181816;23;20462;-72
2023/01/26 12:04:16;;;;;;;89.63;28.55;;;;;;;7.18;62.36;102372.78;6182188;23;20021;-72
2023/01/26 12:06:46;;;;;;;93.35;28.20;;;;;;;7.24;62.38;102368.13;6182235;23;20017;-72
2023/01/26 12:09:22;;;;;;;88.63;29.50;;;;;;;7.30;62.68;102361.69;6156126;22;20013;-72
2023/01/26 12:11:54;;;;;;;81.32;28.48;;;;;;;7.37;62.68;102367.72;6181947;23;20040;-72
2023/01/26 12:14:30;;;;;;;86.32;27.73;;;;;;;7.41;62.49;102358.66;6182127;23;20390;-71
2023/01/26 12:17:23;;;;;;;70.03;26.55;;;;;;;7.49;62.79;102359.31;6182051;22;20045;-72
2023/01/26 12:20:15;;;;;;;70.93;24.00;;;;;;;7.54;62.75;102366.25;6189569;23;20040;-72